Time;durP1;ratioP1;P1;durP2;ratioP2;P2;SDS_P1;SDS_P2;PMS_P1;PMS_P2;Temp;Humidity;BMP_temperature;BMP_pressure;BME280_temperature;BME280_humidity;BME280_pressure;Samples;Min_cycle;Max_cycle;Signal;HPM_P1;HPM_P2
2022/05/18 00:02:17;;;;;;;4.00;3.57;;;16.10;99.90;;;;;;5018394;28;20228;-86
2022/05/18 00:04:42;;;;;;;5.50;3.50;;;15.90;99.90;;;;;;5034923;28;20182;-85
2022/05/18 00:07:08;;;;;;;3.77;3.43;;;15.80;99.90;;;;;;5034335;28;20190;-86
2022/05/18 00:09:34;;;;;;;5.93;3.60;;;15.80;99.90;;;;;;5034075;28;20698;-85
2022/05/18 00:12:00;;;;;;;4.93;3.07;;;15.80;99.90;;;;;;5033646;28;20231;-86
2022/05/18 00:14:26;;;;;;;5.07;3.40;;;15.90;99.90;;;;;;5032930;28;20217;-86
2022/05/18 00:16:52;;;;;;;4.93;3.57;;;16.00;99.90;;;;;;5017937;28;20242;-86
2022/05/18 00:19:18;;;;;;;4.57;3.43;;;15.90;99.90;;;;;;5018126;28;20227;-85
2022/05/18 00:21:44;;;;;;;3.83;3.50;;;15.90;99.90;;;;;;5051060;28;20202;-86
2022/05/18 00:24:10;;;;;;;4.93;3.87;;;15.90;99.90;;;;;;5021508;28;20392;-86
2022/05/18 00:26:39;;;;;;;5.20;3.77;;;15.80;99.90;;;;;;5037811;28;20269;-86
2022/05/18 00:29:11;;;;;;;4.33;3.73;;;15.90;99.90;;;;;;5054323;28;20628;-86
2022/05/18 00:31:36;;;;;;;4.67;3.60;;;15.90;99.90;;;;;;5021820;28;20181;-86
2022/05/18 00:34:03;;;;;;;6.83;3.80;;;15.80;99.90;;;;;;5021650;28;20186;-86
2022/05/18 00:36:29;;;;;;;4.60;3.47;;;15.80;99.90;;;;;;5038149;28;20205;-86
2022/05/18 00:38:55;;;;;;;3.80;3.33;;;15.80;99.90;;;;;;5021409;28;20173;-86
2022/05/18 00:41:23;;;;;;;4.03;3.60;;;15.80;99.90;;;;;;5037953;28;20216;-86
2022/05/18 00:43:51;;;;;;;4.23;3.30;;;15.80;99.90;;;;;;5021250;28;20174;-86
2022/05/18 00:46:17;;;;;;;4.23;3.83;;;15.80;99.90;;;;;;5021702;28;20193;-86
2022/05/18 00:48:44;;;;;;;4.67;3.40;;;15.80;99.90;;;;;;5021281;28;20189;-85
2022/05/18 00:51:35;;;;;;;4.07;3.50;;;15.80;99.90;;;;;;5037619;28;20181;-86
2022/05/18 00:54:25;;;;;;;4.13;3.70;;;15.80;99.90;;;;;;5021559;28;20185;-86
2022/05/18 00:57:02;;;;;;;4.50;3.50;;;15.70;99.90;;;;;;5020871;28;20205;-86
2022/05/18 00:59:33;;;;;;;4.80;3.27;;;15.60;99.90;;;;;;5037605;28;20205;-86
2022/05/18 01:02:01;;;;;;;8.00;3.80;;;15.60;99.90;;;;;;5037482;28;20198;-86
2022/05/18 01:04:27;;;;;;;3.87;3.57;;;15.50;99.90;;;;;;5037560;28;20257;-86
2022/05/18 01:07:25;;;;;;;7.03;3.43;;;15.40;99.90;;;;;;5054100;28;20233;-86
2022/05/18 01:09:51;;;;;;;4.97;3.30;;;15.30;99.90;;;;;;5025918;28;20178;-86
2022/05/18 01:12:20;;;;;;;3.50;3.20;;;15.30;99.90;;;;;;5020958;28;20182;-86
2022/05/18 01:14:50;;;;;;;3.37;3.07;;;15.30;99.90;;;;;;5020915;28;20232;-86
2022/05/18 01:17:20;;;;;;;5.53;3.73;;;15.20;99.90;;;;;;5037459;28;20210;-86
2022/05/18 01:19:50;;;;;;;3.80;3.40;;;15.20;99.90;;;;;;5037373;28;20196;-86
2022/05/18 01:22:35;;;;;;;3.80;3.13;;;15.10;99.90;;;;;;5020906;28;20572;-86
2022/05/18 01:25:32;;;;;;;3.90;3.50;;;15.00;99.90;;;;;;5036938;28;20170;-86
2022/05/18 01:28:00;;;;;;;5.50;3.30;;;14.90;99.90;;;;;;5020617;28;20178;-86
2022/05/18 01:30:28;;;;;;;3.90;3.30;;;14.80;99.90;;;;;;5020358;28;20182;-86
2022/05/18 01:32:56;;;;;;;4.50;3.70;;;14.80;99.90;;;;;;5020443;28;20284;-86
2022/05/18 01:35:26;;;;;;;3.93;3.27;;;14.70;99.90;;;;;;5019596;28;20232;-86
2022/05/18 01:37:57;;;;;;;4.20;3.17;;;14.70;99.90;;;;;;5036993;28;20178;-86
2022/05/18 01:40:28;;;;;;;3.83;3.47;;;14.60;99.90;;;;;;5020304;28;20181;-86
2022/05/18 01:43:20;;;;;;;4.17;3.53;;;14.70;99.90;;;;;;5036785;28;20209;-86
2022/05/18 01:45:51;;;;;;;5.63;3.60;;;14.70;99.90;;;;;;5036957;28;20247;-86
2022/05/18 01:48:22;;;;;;;4.10;3.70;;;14.70;99.90;;;;;;5020401;28;20182;-86
2022/05/18 01:50:49;;;;;;;4.70;3.63;;;14.70;99.90;;;;;;5036876;28;20173;-86
2022/05/18 01:53:16;;;;;;;4.53;3.00;;;14.70;99.90;;;;;;5020042;28;20261;-85
2022/05/18 01:55:43;;;;;;;3.87;3.33;;;14.70;99.90;;;;;;5020319;28;20208;-86
2022/05/18 01:58:11;;;;;;;4.87;3.80;;;14.80;99.90;;;;;;5053204;28;20266;-86
2022/05/18 02:00:38;;;;;;;5.77;3.57;;;14.60;99.90;;;;;;5020223;28;20182;-86
2022/05/18 02:03:04;;;;;;;4.33;3.60;;;14.40;99.90;;;;;;5036513;28;20588;-86
2022/05/18 02:05:30;;;;;;;4.93;3.50;;;14.30;99.90;;;;;;5020260;28;20202;-86
2022/05/18 02:07:57;;;;;;;6.40;4.03;;;14.20;99.90;;;;;;5020201;28;20630;-86
2022/05/18 02:10:24;;;;;;;6.30;3.47;;;14.20;99.90;;;;;;5019527;28;20185;-86
2022/05/18 02:12:51;;;;;;;4.63;3.37;;;14.30;99.90;;;;;;5020056;28;20178;-86
2022/05/18 02:15:17;;;;;;;7.47;4.23;;;14.30;99.90;;;;;;5019932;28;20178;-86
2022/05/18 02:17:43;;;;;;;3.90;3.50;;;14.30;99.90;;;;;;5019854;28;20269;-85
2022/05/18 02:20:11;;;;;;;4.47;3.60;;;14.40;99.90;;;;;;5036276;28;20180;-86
2022/05/18 02:22:37;;;;;;;4.53;3.93;;;14.40;99.90;;;;;;5019616;28;20206;-86
2022/05/18 02:25:04;;;;;;;5.20;3.50;;;14.40;99.90;;;;;;5036238;28;20174;-86
2022/05/18 02:27:30;;;;;;;4.40;3.63;;;14.30;99.90;;;;;;5019539;28;20315;-86
2022/05/18 02:29:56;;;;;;;4.43;4.00;;;14.30;99.90;;;;;;5018786;28;20265;-86
2022/05/18 02:32:22;;;;;;;4.73;3.43;;;14.20;99.90;;;;;;5035946;28;20181;-86
2022/05/18 02:34:48;;;;;;;4.50;3.50;;;14.10;99.90;;;;;;5035903;28;20216;-86
2022/05/18 02:37:15;;;;;;;6.80;3.70;;;14.00;99.90;;;;;;5019131;28;20198;-86
2022/05/18 02:39:43;;;;;;;4.47;3.40;;;13.80;99.90;;;;;;5035414;28;20178;-86
2022/05/18 02:42:09;;;;;;;4.77;3.53;;;13.80;99.90;;;;;;5019281;28;20205;-85
2022/05/18 02:44:35;;;;;;;5.60;3.30;;;13.80;99.90;;;;;;5011750;28;20662;-86
2022/05/18 02:47:01;;;;;;;4.03;3.60;;;13.70;99.90;;;;;;5015538;28;20244;-86
2022/05/18 02:49:28;;;;;;;4.03;3.63;;;13.70;99.90;;;;;;5015566;28;20324;-86
2022/05/18 02:51:54;;;;;;;6.03;4.67;;;13.60;99.90;;;;;;5015742;28;20188;-85
2022/05/18 02:57:06;;;;;;;6.17;4.03;;;13.50;99.90;;;;;;5015495;28;20289;-86
2022/05/18 02:59:33;;;;;;;4.30;3.87;;;13.50;99.90;;;;;;5015526;28;20178;-86
2022/05/18 03:02:00;;;;;;;4.53;4.00;;;13.50;99.90;;;;;;5015668;28;20675;-86
2022/05/18 03:04:26;;;;;;;5.13;4.10;;;13.60;99.90;;;;;;5015502;28;20204;-86
2022/05/18 03:06:52;;;;;;;5.80;3.60;;;13.60;99.90;;;;;;5015625;28;20205;-86
2022/05/18 03:09:18;;;;;;;6.70;3.70;;;13.60;99.90;;;;;;5015680;28;20181;-85
2022/05/18 03:11:46;;;;;;;7.53;3.70;;;13.70;99.90;;;;;;5015442;28;20200;-85
2022/05/18 03:14:13;;;;;;;4.23;3.63;;;13.70;99.90;;;;;;5015466;28;20191;-86
2022/05/18 03:16:43;;;;;;;3.67;3.33;;;13.70;99.90;;;;;;5031935;28;20256;-86
2022/05/18 03:19:14;;;;;;;4.60;3.80;;;13.70;99.90;;;;;;5015353;28;20233;-86
2022/05/18 03:24:24;;;;;;;4.53;4.00;;;13.90;99.90;;;;;;5015446;28;20179;-86
2022/05/18 03:26:50;;;;;;;4.83;4.10;;;13.90;99.90;;;;;;5015406;28;20248;-86
2022/05/18 03:29:17;;;;;;;4.73;3.53;;;13.90;99.90;;;;;;5015323;28;20232;-86
2022/05/18 03:32:15;;;;;;;4.53;3.50;;;13.80;99.90;;;;;;5031595;28;20179;-86
2022/05/18 03:34:41;;;;;;;5.87;3.77;;;13.80;99.90;;;;;;5015421;28;20189;-86
2022/05/18 03:37:08;;;;;;;4.00;3.27;;;13.70;99.90;;;;;;5015221;28;20202;-85
2022/05/18 03:39:34;;;;;;;4.67;3.50;;;13.70;99.90;;;;;;5015025;28;20194;-85
2022/05/18 03:42:00;;;;;;;4.87;3.90;;;13.70;99.90;;;;;;5015007;28;20210;-86
2022/05/18 03:44:25;;;;;;;4.63;3.97;;;13.50;99.90;;;;;;5015490;28;20261;-86
2022/05/18 03:46:51;;;;;;;3.50;3.20;;;13.50;99.90;;;;;;5015373;28;20282;-85
2022/05/18 03:49:17;;;;;;;4.50;3.83;;;13.50;99.90;;;;;;5014047;28;20214;-86
2022/05/18 03:51:43;;;;;;;4.27;3.87;;;13.60;99.90;;;;;;5014990;28;20172;-85
2022/05/18 03:54:10;;;;;;;5.33;3.93;;;13.50;99.90;;;;;;5015403;28;20179;-86
2022/05/18 03:56:36;;;;;;;3.90;3.50;;;13.50;99.90;;;;;;5014939;28;20209;-86
2022/05/18 03:59:01;;;;;;;5.30;3.97;;;13.50;99.90;;;;;;5017308;28;20266;-85
2022/05/18 04:01:41;;;;;;;6.37;4.10;;;13.50;99.90;;;;;;5018247;28;20210;-85
2022/05/18 04:04:34;;;;;;;4.13;3.73;;;13.50;99.90;;;;;;5018511;28;20180;-85
2022/05/18 04:07:00;;;;;;;5.60;4.17;;;13.50;99.90;;;;;;5002532;28;20202;-85
2022/05/18 04:09:25;;;;;;;5.30;4.10;;;13.50;99.90;;;;;;5035023;28;20183;-86
2022/05/18 04:11:51;;;;;;;4.33;3.90;;;13.40;99.90;;;;;;5018683;28;20236;-86
2022/05/18 04:14:17;;;;;;;4.80;4.03;;;13.20;99.90;;;;;;5018716;28;20183;-85
2022/05/18 04:16:48;;;;;;;5.87;4.50;;;13.10;99.90;;;;;;5018686;28;20265;-85
2022/05/18 04:19:15;;;;;;;4.57;4.17;;;13.10;99.90;;;;;;5018658;28;20276;-86
2022/05/18 04:21:41;;;;;;;5.43;4.43;;;13.00;99.90;;;;;;5018557;28;20198;-85
2022/05/18 04:24:07;;;;;;;5.83;4.30;;;13.00;99.90;;;;;;5018858;28;20231;-85
2022/05/18 04:26:33;;;;;;;6.00;4.70;;;13.00;99.90;;;;;;5018475;28;20198;-85
2022/05/18 04:28:59;;;;;;;8.07;4.90;;;13.00;99.90;;;;;;5018564;28;20183;-86
2022/05/18 04:31:25;;;;;;;6.53;4.50;;;13.10;99.90;;;;;;5018331;28;20182;-85
2022/05/18 04:33:51;;;;;;;6.00;4.73;;;13.10;99.90;;;;;;5034750;28;20189;-85
2022/05/18 04:36:17;;;;;;;5.60;4.33;;;13.10;99.90;;;;;;5018276;28;20320;-85
2022/05/18 04:38:42;;;;;;;5.97;4.47;;;13.10;99.90;;;;;;5018544;28;20181;-85
2022/05/18 04:41:10;;;;;;;5.93;5.00;;;13.20;99.90;;;;;;5018298;28;20242;-85
2022/05/18 04:43:36;;;;;;;6.97;5.03;;;13.20;99.90;;;;;;5018130;28;20184;-85
2022/05/18 04:46:02;;;;;;;7.23;4.93;;;13.30;99.90;;;;;;5018404;28;20204;-86
2022/05/18 04:48:31;;;;;;;5.10;4.60;;;13.30;99.90;;;;;;5018129;28;20185;-85
2022/05/18 04:50:57;;;;;;;5.87;4.27;;;13.40;99.90;;;;;;5017954;28;20246;-86
2022/05/18 04:53:22;;;;;;;5.60;4.10;;;13.30;99.90;;;;;;5034560;28;20707;-85
2022/05/18 04:55:49;;;;;;;4.90;3.97;;;13.40;99.90;;;;;;5034501;28;20281;-85
2022/05/18 04:58:17;;;;;;;5.23;3.87;;;13.50;99.90;;;;;;5034460;28;20183;-85
2022/05/18 05:00:44;;;;;;;5.13;4.37;;;13.60;99.90;;;;;;5017362;28;20193;-85
2022/05/18 05:03:10;;;;;;;4.87;4.37;;;13.70;99.90;;;;;;5017847;28;20197;-86
2022/05/18 05:05:42;;;;;;;5.57;4.43;;;13.80;99.90;;;;;;5017368;28;20204;-85
2022/05/18 05:08:08;;;;;;;5.13;4.63;;;13.90;99.90;;;;;;5017641;28;20183;-85
2022/05/18 05:10:34;;;;;;;5.17;4.67;;;14.00;99.90;;;;;;5017710;28;20182;-85
2022/05/18 05:12:59;;;;;;;7.33;4.77;;;14.10;99.90;;;;;;5017983;28;20204;-85
2022/05/18 05:15:25;;;;;;;6.97;4.40;;;14.20;99.90;;;;;;5017347;28;20237;-85
2022/05/18 05:17:51;;;;;;;8.50;4.60;;;14.30;99.90;;;;;;5034116;28;20304;-85
2022/05/18 05:20:17;;;;;;;9.63;5.20;;;14.40;99.90;;;;;;5017179;28;20188;-85
2022/05/18 05:22:43;;;;;;;6.13;5.00;;;14.30;99.90;;;;;;5017549;28;20210;-85
2022/05/18 05:25:10;;;;;;;7.27;4.60;;;14.40;99.90;;;;;;5017856;28;20186;-86
2022/05/18 05:27:36;;;;;;;4.87;4.47;;;14.50;99.90;;;;;;5018422;28;20205;-83
2022/05/18 05:30:03;;;;;;;5.43;4.63;;;14.60;99.90;;;;;;5056516;28;20213;-86
2022/05/18 05:32:29;;;;;;;5.50;4.40;;;14.70;99.90;;;;;;5016644;28;20170;-86
2022/05/18 05:34:54;;;;;;;6.30;4.47;;;14.80;99.90;;;;;;5024888;28;20186;-85
2022/05/18 05:37:20;;;;;;;6.23;5.67;;;14.90;99.90;;;;;;5017340;28;20199;-86
2022/05/18 05:39:46;;;;;;;5.67;5.10;;;15.00;99.90;;;;;;5017185;28;20175;-86
2022/05/18 05:42:12;;;;;;;7.27;5.23;;;15.20;99.90;;;;;;5033928;28;20210;-86
2022/05/18 05:44:38;;;;;;;5.80;4.80;;;15.30;99.90;;;;;;5017124;28;20182;-86
2022/05/18 05:47:04;;;;;;;5.50;5.00;;;15.50;99.90;;;;;;5016941;28;20247;-85
2022/05/18 05:49:30;;;;;;;7.23;4.80;;;15.60;99.90;;;;;;5016879;28;20170;-86
2022/05/18 05:51:56;;;;;;;5.23;4.50;;;15.80;99.90;;;;;;5016812;28;20178;-86
2022/05/18 05:54:22;;;;;;;5.50;5.00;;;16.00;99.90;;;;;;5017401;28;20182;-83
2022/05/18 05:56:48;;;;;;;5.40;4.90;;;16.20;99.90;;;;;;5026683;28;20722;-80
2022/05/18 05:59:16;;;;;;;5.80;5.10;;;16.40;99.90;;;;;;5035864;28;20221;-81
2022/05/18 06:01:42;;;;;;;6.87;5.23;;;16.60;99.90;;;;;;5029028;28;20236;-81
2022/05/18 06:04:10;;;;;;;5.00;4.60;;;16.70;99.90;;;;;;5022825;28;20243;-81
2022/05/18 06:06:37;;;;;;;5.33;4.83;;;16.90;99.90;;;;;;5039156;28;20198;-81
2022/05/18 06:09:07;;;;;;;6.03;4.93;;;17.00;99.90;;;;;;5030412;28;20178;-81
2022/05/18 06:11:34;;;;;;;6.23;4.73;;;17.10;99.90;;;;;;5056537;28;20176;-81
2022/05/18 06:14:02;;;;;;;5.27;4.70;;;17.30;99.90;;;;;;5036957;28;20178;-81
2022/05/18 06:16:28;;;;;;;10.43;4.60;;;17.40;99.90;;;;;;5035033;28;20831;-81
2022/05/18 06:18:54;;;;;;;5.37;4.83;;;17.60;99.90;;;;;;5021710;28;20186;-81
2022/05/18 06:21:20;;;;;;;5.13;4.63;;;17.80;99.90;;;;;;5032153;28;20223;-80
2022/05/18 06:23:46;;;;;;;4.90;4.30;;;17.60;99.90;;;;;;5056735;28;20259;-80
2022/05/18 06:26:12;;;;;;;5.78;4.55;;;17.80;99.90;;;;;;5021291;28;20677;-80
2022/05/18 06:28:40;;;;;;;6.20;4.70;;;18.00;99.90;;;;;;5035683;28;20182;-80
2022/05/18 06:31:06;;;;;;;5.35;4.15;;;18.10;99.90;;;;;;5026055;28;20178;-80
2022/05/18 06:33:34;;;;;;;5.70;4.50;;;18.20;99.90;;;;;;5019608;28;20178;-81
2022/05/18 06:36:04;;;;;;;6.68;4.70;;;18.40;99.90;;;;;;5026606;28;20206;-80
2022/05/18 06:38:30;;;;;;;6.03;4.40;;;18.60;99.90;;;;;;5038909;28;20192;-80
2022/05/18 06:43:43;;;;;;;5.38;4.25;;;18.80;99.90;;;;;;5035189;28;20174;-80
2022/05/18 06:46:09;;;;;;;6.25;4.78;;;18.90;99.90;;;;;;5034213;28;20203;-81
2022/05/18 06:48:40;;;;;;;6.47;5.20;;;19.00;99.90;;;;;;5017448;28;20265;-81
2022/05/18 06:51:07;;;;;;;4.97;3.88;;;19.10;99.90;;;;;;5025962;28;20182;-81
2022/05/18 06:53:38;;;;;;;6.85;4.75;;;19.30;99.90;;;;;;5018921;28;20543;-81
2022/05/18 06:56:07;;;;;;;7.10;4.90;;;19.40;99.90;;;;;;5034717;28;20273;-84
2022/05/18 06:58:33;;;;;;;4.65;4.20;;;19.50;99.90;;;;;;5018084;28;20261;-85
2022/05/18 07:01:01;;;;;;;4.85;4.38;;;19.60;99.90;;;;;;5018353;28;20201;-85
2022/05/18 07:03:27;;;;;;;5.40;4.35;;;19.70;99.90;;;;;;5018813;28;20180;-86
2022/05/18 07:05:53;;;;;;;4.95;4.55;;;19.70;99.90;;;;;;5018763;28;20700;-83
2022/05/18 07:08:20;;;;;;;6.70;4.78;;;19.80;99.90;;;;;;5018555;28;20242;-87
2022/05/18 07:10:46;;;;;;;7.05;4.40;;;19.90;99.90;;;;;;5018233;28;20176;-86
2022/05/18 07:13:23;;;;;;;5.57;4.28;;;19.90;99.90;;;;;;5018319;28;20248;-87
2022/05/18 07:15:49;;;;;;;4.95;4.45;;;20.10;99.90;;;;;;5018587;28;20197;-87
2022/05/18 07:18:16;;;;;;;5.63;4.07;;;20.30;99.90;;;;;;5019171;28;20189;-87
2022/05/18 07:20:42;;;;;;;4.75;4.13;;;20.40;99.90;;;;;;5018730;28;20180;-87
2022/05/18 07:23:09;;;;;;;3.80;3.50;;;20.60;99.90;;;;;;5018635;28;20220;-87
2022/05/18 07:25:35;;;;;;;3.90;3.53;;;20.70;99.90;;;;;;5018622;28;20221;-87
2022/05/18 07:28:12;;;;;;;5.57;3.70;;;20.90;99.90;;;;;;5017862;28;20217;-87
2022/05/18 07:30:58;;;;;;;3.78;3.33;;;21.10;99.90;;;;;;5016761;28;20173;-88
2022/05/18 07:33:41;;;;;;;4.72;3.53;;;21.30;99.90;;;;;;5033803;28;20170;-87
2022/05/18 07:36:07;;;;;;;5.45;3.30;;;21.40;99.90;;;;;;5045435;28;20254;-87
2022/05/18 07:38:35;;;;;;;3.55;3.25;;;21.40;99.90;;;;;;5039470;28;20178;-87
2022/05/18 07:41:01;;;;;;;4.40;3.38;;;21.50;99.90;;;;;;5038638;28;20173;-88
2022/05/18 07:43:28;;;;;;;3.53;3.20;;;21.70;99.90;;;;;;5002394;28;20208;-88
2022/05/18 07:45:55;;;;;;;4.15;3.15;;;21.80;99.90;;;;;;5002967;28;20286;-88
2022/05/18 07:48:23;;;;;;;3.78;3.05;;;22.00;99.90;;;;;;5003214;28;20194;-88
2022/05/18 07:50:50;;;;;;;5.47;3.63;;;22.10;99.90;;;;;;5017351;28;20182;-88
2022/05/18 07:53:17;;;;;;;6.32;3.67;;;22.10;99.90;;;;;;5028726;28;20214;-88
2022/05/18 07:56:09;;;;;;;6.32;3.78;;;22.10;99.90;;;;;;5019413;28;20205;-88
2022/05/18 07:58:35;;;;;;;5.47;3.25;;;22.20;99.90;;;;;;5038493;28;20182;-89
2022/05/18 08:01:07;;;;;;;5.18;3.50;;;22.30;99.90;;;;;;5038095;28;20182;-89
2022/05/18 08:03:37;;;;;;;3.83;3.10;;;22.50;99.90;;;;;;5019841;28;20174;-88
2022/05/18 08:06:04;;;;;;;5.32;3.08;;;22.70;99.90;;;;;;5021696;28;20690;-89
2022/05/18 08:08:32;;;;;;;4.32;3.10;;;22.90;99.90;;;;;;5029435;28;20213;-89
2022/05/18 08:16:31;;;;;;;3.83;3.05;;;23.40;99.90;;;;;;5018177;28;20210;-87
2022/05/18 08:18:57;;;;;;;4.95;3.50;;;23.60;99.90;;;;;;5001418;28;20256;-88
2022/05/18 08:21:23;;;;;;;6.88;4.00;;;23.70;99.90;;;;;;5002407;28;20210;-88
2022/05/18 08:23:50;;;;;;;4.70;3.15;;;23.90;99.90;;;;;;5001505;28;20187;-88
2022/05/18 08:26:16;;;;;;;3.30;3.00;;;24.10;99.90;;;;;;5001706;28;20203;-87
2022/05/18 08:28:43;;;;;;;6.68;3.95;;;24.30;99.90;;;;;;5017837;28;20179;-87
2022/05/18 08:31:12;;;;;;;3.90;2.80;;;24.30;99.90;;;;;;5017887;28;20187;-87
2022/05/18 08:33:39;;;;;;;4.18;3.33;;;24.20;99.90;;;;;;5001569;28;20194;-88
2022/05/18 08:36:07;;;;;;;4.07;3.55;;;24.50;99.90;;;;;;5001320;28;20209;-88
2022/05/18 08:38:36;;;;;;;5.22;3.50;;;24.70;99.90;;;;;;5001416;28;20596;-88
2022/05/18 08:41:18;;;;;;;4.55;3.40;;;24.60;99.90;;;;;;4985673;28;20187;-88
2022/05/18 08:43:47;;;;;;;4.03;3.22;;;24.60;99.90;;;;;;5000769;28;20177;-87
2022/05/18 08:46:44;;;;;;;3.75;3.03;;;24.90;99.90;;;;;;5003301;28;20269;-88
2022/05/18 08:49:40;;;;;;;3.70;3.30;;;25.20;99.90;;;;;;5032950;28;20266;-88
2022/05/18 08:52:33;;;;;;;5.13;3.38;;;25.40;99.90;;;;;;5041375;28;20194;-87
2022/05/18 08:55:27;;;;;;;3.75;3.38;;;25.70;99.90;;;;;;5020060;28;20221;-87
2022/05/18 08:57:58;;;;;;;4.03;3.40;;;26.00;99.90;;;;;;5002536;28;20177;-88
2022/05/18 09:00:36;;;;;;;5.47;3.50;;;26.20;99.90;;;;;;5000631;28;20182;-89
2022/05/18 09:03:57;;;;;;;4.25;3.60;;;26.30;99.90;;;;;;5000789;28;20643;-88
2022/05/18 09:07:06;;;;;;;3.75;3.40;;;26.30;99.90;;;;;;4961330;28;20210;-88
2022/05/18 09:12:42;;;;;;;4.95;3.10;;;26.70;99.90;;;;;;5032527;28;20237;-88
2022/05/18 09:15:13;;;;;;;6.68;3.53;;;26.90;99.90;;;;;;5002783;28;20302;-88
2022/05/18 09:17:55;;;;;;;3.28;2.97;;;26.90;99.90;;;;;;5000683;28;20194;-87
2022/05/18 09:20:25;;;;;;;6.80;3.25;;;27.00;99.90;;;;;;5029182;28;20197;-88
2022/05/18 09:23:20;;;;;;;4.20;3.33;;;27.00;99.90;;;;;;5017595;28;20185;-87
2022/05/18 09:26:10;;;;;;;4.03;2.95;;;27.10;99.90;;;;;;5000293;28;20214;-88
2022/05/18 09:28:36;;;;;;;3.97;3.13;;;27.20;99.90;;;;;;5016624;28;20183;-88
2022/05/18 09:31:46;;;;;;;3.35;2.92;;;27.10;99.90;;;;;;5000265;28;20174;-87
2022/05/18 09:34:37;;;;;;;3.50;2.80;;;27.30;99.90;;;;;;5045006;28;20283;-88
2022/05/18 09:37:29;;;;;;;4.70;3.03;;;27.40;99.90;;;;;;5016211;28;20199;-88
2022/05/18 09:40:15;;;;;;;3.35;2.83;;;27.60;99.90;;;;;;5016794;28;20254;-88
2022/05/18 09:42:55;;;;;;;3.38;2.67;;;27.70;99.50;;;;;;5019235;28;20216;-88
2022/05/18 09:45:26;;;;;;;3.10;2.80;;;27.90;99.20;;;;;;5016479;28;20182;-88
2022/05/18 09:48:03;;;;;;;2.92;2.55;;;28.00;98.40;;;;;;5032225;28;20205;-88
2022/05/18 09:50:29;;;;;;;4.15;2.70;;;28.10;98.20;;;;;;5051452;28;20324;-87
2022/05/18 09:52:59;;;;;;;3.45;2.72;;;28.20;98.30;;;;;;5027208;28;20277;-88
2022/05/18 09:55:26;;;;;;;3.42;3.03;;;27.80;97.00;;;;;;5031984;28;20224;-88
2022/05/18 09:58:13;;;;;;;3.10;2.80;;;27.80;98.70;;;;;;5000116;28;20182;-88
2022/05/18 10:00:41;;;;;;;3.65;2.65;;;28.00;98.00;;;;;;5003105;28;20162;-87
2022/05/18 10:09:13;;;;;;;3.67;2.53;;;27.70;96.50;;;;;;5035972;28;20193;-88
2022/05/18 10:11:40;;;;;;;4.65;3.17;;;27.40;96.80;;;;;;5024157;28;20256;-88
2022/05/18 10:14:14;;;;;;;3.15;2.70;;;27.60;96.30;;;;;;5001145;28;20193;-88
2022/05/18 10:16:42;;;;;;;3.13;2.53;;;27.80;97.70;;;;;;5007703;28;20264;-88
2022/05/18 10:19:48;;;;;;;3.05;1.90;;;28.10;96.10;;;;;;5001552;28;20174;-87
2022/05/18 10:22:24;;;;;;;3.00;2.13;;;28.20;93.20;;;;;;5022140;28;20197;-88
2022/05/18 10:24:58;;;;;;;4.68;2.33;;;28.50;92.90;;;;;;4999913;28;20269;-88
2022/05/18 10:27:29;;;;;;;3.30;1.83;;;28.60;92.60;;;;;;5035428;28;20234;-88
2022/05/18 10:30:14;;;;;;;3.92;2.13;;;28.80;93.00;;;;;;5035556;28;20212;-88
2022/05/18 10:33:02;;;;;;;2.70;2.50;;;28.90;92.00;;;;;;5019023;28;20206;-87
2022/05/18 10:35:47;;;;;;;2.97;2.22;;;29.00;92.30;;;;;;5035683;28;20291;-88
2022/05/18 10:38:38;;;;;;;3.08;2.35;;;29.10;92.90;;;;;;5035497;28;20223;-88
2022/05/18 10:41:04;;;;;;;2.58;1.92;;;29.30;92.90;;;;;;5035399;28;20169;-88
2022/05/18 10:43:44;;;;;;;3.05;2.10;;;29.40;91.30;;;;;;5019292;28;20182;-88
2022/05/18 10:46:18;;;;;;;2.30;1.88;;;29.30;92.60;;;;;;5019369;28;20229;-88
2022/05/18 10:48:55;;;;;;;2.13;1.80;;;29.30;91.00;;;;;;5035322;28;20182;-88
2022/05/18 10:51:31;;;;;;;2.28;2.00;;;29.50;92.20;;;;;;5035686;28;20280;-88
2022/05/18 10:54:13;;;;;;;3.30;1.95;;;29.60;91.20;;;;;;5035323;28;20173;-88
2022/05/18 10:56:40;;;;;;;2.15;1.95;;;29.80;90.30;;;;;;5030278;28;20201;-88
2022/05/18 10:59:43;;;;;;;2.13;1.88;;;29.70;90.80;;;;;;5015416;28;20186;-87
2022/05/18 11:02:21;;;;;;;3.78;2.17;;;29.80;88.90;;;;;;5023679;28;20182;-88
2022/05/18 11:04:54;;;;;;;4.97;2.22;;;29.70;90.90;;;;;;5015488;28;20214;-88
2022/05/18 11:07:26;;;;;;;2.15;1.95;;;29.50;89.40;;;;;;4998662;28;20210;-88
2022/05/18 11:09:53;;;;;;;2.75;1.83;;;29.40;88.40;;;;;;4998585;28;20631;-88
2022/05/18 11:12:40;;;;;;;5.28;2.00;;;29.40;88.30;;;;;;5005266;28;20248;-88
2022/05/18 11:15:23;;;;;;;3.78;2.42;;;29.50;88.00;;;;;;5031763;28;20212;-88
2022/05/18 11:18:19;;;;;;;3.30;2.20;;;29.50;87.10;;;;;;5035579;28;20193;-87
2022/05/18 11:21:03;;;;;;;2.10;1.90;;;29.60;90.20;;;;;;5005515;28;20183;-87
2022/05/18 11:23:52;;;;;;;2.72;1.90;;;29.90;88.60;;;;;;5014751;28;20190;-88
2022/05/18 11:26:30;;;;;;;2.20;2.00;;;30.10;88.30;;;;;;5014185;28;20225;-88
2022/05/18 11:29:23;;;;;;;2.53;2.05;;;30.00;87.70;;;;;;5014443;28;20189;-88
2022/05/18 11:32:16;;;;;;;2.15;1.95;;;30.10;86.30;;;;;;5031277;28;20301;-87
2022/05/18 11:34:50;;;;;;;2.05;1.73;;;30.30;86.40;;;;;;5031123;28;20183;-88
2022/05/18 11:37:22;;;;;;;2.30;1.80;;;30.50;85.10;;;;;;5014620;28;20201;-88
2022/05/18 11:39:56;;;;;;;2.15;1.95;;;30.40;84.30;;;;;;5043240;28;20182;-88
2022/05/18 11:42:46;;;;;;;2.92;2.30;;;30.40;82.70;;;;;;5034871;28;20178;-88
2022/05/18 11:45:30;;;;;;;2.70;2.20;;;30.60;87.70;;;;;;5018083;28;20261;-88
2022/05/18 11:48:18;;;;;;;2.25;1.60;;;30.60;86.10;;;;;;5051618;28;20190;-89
2022/05/18 11:51:15;;;;;;;3.15;1.90;;;30.60;82.70;;;;;;5050669;28;20219;-87
2022/05/18 11:53:43;;;;;;;2.85;1.92;;;30.20;82.80;;;;;;5050361;28;20211;-87
2022/05/18 11:56:45;;;;;;;3.85;2.22;;;29.80;83.60;;;;;;5050766;28;20206;-88
2022/05/18 11:59:56;;;;;;;2.20;2.00;;;29.80;85.10;;;;;;5050502;28;20181;-88
2022/05/18 12:02:47;;;;;;;1.88;1.77;;;30.10;86.80;;;;;;5039716;28;20277;-87
2022/05/18 12:05:18;;;;;;;2.17;1.98;;;30.50;84.80;;;;;;5050693;28;20224;-87
2022/05/18 12:07:49;;;;;;;2.13;1.70;;;30.80;80.90;;;;;;5050538;28;20174;-87
2022/05/18 12:10:34;;;;;;;2.22;1.80;;;30.90;80.90;;;;;;5036373;28;20166;-87
2022/05/18 12:13:23;;;;;;;2.75;1.80;;;31.10;81.40;;;;;;5049581;28;20244;-87
2022/05/18 12:15:53;;;;;;;2.35;1.80;;;31.40;77.90;;;;;;5032605;28;20206;-87
2022/05/18 12:18:30;;;;;;;3.28;1.95;;;31.20;77.40;;;;;;5041310;28;20201;-87
2022/05/18 12:21:05;;;;;;;2.67;1.95;;;31.10;78.60;;;;;;5046858;28;20185;-87
2022/05/18 12:23:39;;;;;;;3.25;2.00;;;31.20;79.70;;;;;;5007319;28;20189;-88
2022/05/18 12:26:21;;;;;;;1.90;1.70;;;31.40;78.80;;;;;;5021162;28;20650;-87
2022/05/18 12:28:50;;;;;;;2.65;1.55;;;31.40;78.60;;;;;;5001044;28;20183;-87
2022/05/18 12:31:18;;;;;;;2.80;1.80;;;31.20;81.30;;;;;;5001360;28;20183;-87
2022/05/18 12:34:00;;;;;;;1.92;1.65;;;31.30;81.90;;;;;;5032324;28;20227;-87
2022/05/18 12:36:58;;;;;;;3.40;1.98;;;31.30;79.10;;;;;;5036055;28;20210;-87
2022/05/18 12:39:46;;;;;;;6.05;2.00;;;31.60;81.20;;;;;;4989848;28;20643;-87
2022/05/18 12:42:27;;;;;;;1.95;1.75;;;31.60;77.60;;;;;;5001179;28;20194;-87
2022/05/18 12:45:09;;;;;;;2.33;1.90;;;31.80;78.30;;;;;;5029672;28;20224;-87
2022/05/18 12:47:52;;;;;;;1.88;1.75;;;31.80;76.90;;;;;;5008520;28;20182;-87
2022/05/18 12:50:28;;;;;;;3.25;1.98;;;31.70;76.90;;;;;;5036367;28;20189;-87
2022/05/18 12:53:24;;;;;;;2.88;1.95;;;32.10;80.60;;;;;;5020640;28;20206;-87
2022/05/18 12:55:59;;;;;;;2.42;1.80;;;32.00;78.80;;;;;;5027312;28;20191;-88
2022/05/18 12:58:37;;;;;;;2.10;1.90;;;32.10;77.70;;;;;;5015914;28;20265;-87
2022/05/18 13:01:09;;;;;;;2.60;1.67;;;32.20;77.00;;;;;;5027770;28;20170;-87
2022/05/18 13:03:54;;;;;;;2.53;1.80;;;32.30;77.50;;;;;;5009477;28;20190;-87
2022/05/18 13:06:47;;;;;;;2.17;1.50;;;32.10;75.00;;;;;;5047500;28;20283;-87
2022/05/18 13:09:36;;;;;;;2.33;1.55;;;32.20;73.00;;;;;;5023469;28;20189;-89
2022/05/18 13:12:21;;;;;;;3.90;1.77;;;32.20;74.10;;;;;;5031577;28;20202;-88
2022/05/18 13:15:04;;;;;;;2.85;1.90;;;32.30;74.20;;;;;;5054009;28;20219;-88
2022/05/18 13:18:03;;;;;;;2.17;1.70;;;32.40;74.20;;;;;;5053156;28;20190;-88
2022/05/18 13:20:45;;;;;;;3.83;1.60;;;32.60;75.80;;;;;;5015672;28;20643;-88
2022/05/18 13:23:29;;;;;;;2.60;1.65;;;32.50;73.40;;;;;;5016212;28;20189;-88
2022/05/18 13:26:01;;;;;;;2.85;1.75;;;32.40;73.50;;;;;;5016315;28;20195;-88
2022/05/18 13:28:31;;;;;;;2.03;1.77;;;32.60;75.40;;;;;;5016845;28;20214;-88
2022/05/18 13:31:00;;;;;;;2.05;1.70;;;32.80;74.40;;;;;;5015379;28;20262;-88
2022/05/18 13:33:35;;;;;;;1.90;1.60;;;32.70;75.20;;;;;;5016491;28;20214;-89
2022/05/18 13:36:01;;;;;;;2.85;1.65;;;32.20;73.50;;;;;;5016536;28;20209;-88
2022/05/18 13:38:28;;;;;;;2.40;1.70;;;32.40;74.50;;;;;;5016225;28;20224;-88
2022/05/18 13:41:00;;;;;;;1.85;1.65;;;32.50;74.80;;;;;;5016716;28;20250;-88